createdAt,value
2022-08-30T00:00:30.902Z,15.68
2022-08-30T00:01:30.536Z,15.67
2022-08-30T00:02:30.672Z,15.60
2022-08-30T00:03:30.745Z,15.41
2022-08-30T00:04:30.505Z,15.39
2022-08-30T00:05:30.520Z,15.20
2022-08-30T00:06:30.482Z,15.20
2022-08-30T00:07:30.475Z,15.08
2022-08-30T00:08:30.472Z,14.81
2022-08-30T00:09:30.469Z,14.64
2022-08-30T00:10:30.461Z,14.39
2022-08-30T00:11:30.453Z,14.27
2022-08-30T00:12:30.440Z,14.21
2022-08-30T00:13:30.452Z,14.28
2022-08-30T00:14:30.450Z,14.38
2022-08-30T00:15:30.519Z,14.57
2022-08-30T00:16:30.417Z,14.67
2022-08-30T00:17:30.421Z,14.71
2022-08-30T00:18:30.402Z,14.86
2022-08-30T00:19:30.391Z,14.90
2022-08-30T00:20:31.389Z,14.99
2022-08-30T00:21:30.389Z,15.02
2022-08-30T00:22:30.365Z,14.99
2022-08-30T00:23:30.378Z,15.05
2022-08-30T00:24:30.398Z,14.80
2022-08-30T00:25:30.377Z,14.86
2022-08-30T00:26:30.357Z,14.75
2022-08-30T00:27:30.349Z,14.69
2022-08-30T00:28:30.350Z,14.74
2022-08-30T00:29:30.374Z,14.69
2022-08-30T00:30:30.339Z,14.72
2022-08-30T00:31:30.389Z,14.74
2022-08-30T00:32:30.394Z,14.62
2022-08-30T00:33:30.322Z,14.68
2022-08-30T00:34:30.318Z,14.64
2022-08-30T00:35:30.317Z,14.43
2022-08-30T00:36:30.289Z,14.29
2022-08-30T00:37:30.294Z,14.32
2022-08-30T00:38:30.278Z,14.32
2022-08-30T00:39:30.305Z,14.38
2022-08-30T00:40:30.309Z,14.21
2022-08-30T00:41:30.268Z,14.13
2022-08-30T00:42:30.247Z,13.99
2022-08-30T00:43:30.247Z,13.99
2022-08-30T00:44:31.237Z,13.99
2022-08-30T00:45:30.263Z,14.28
2022-08-30T00:46:30.331Z,14.17
2022-08-30T00:47:30.217Z,14.20
2022-08-30T00:48:30.233Z,14.27
2022-08-30T00:49:30.207Z,14.14
2022-08-30T00:50:30.219Z,14.10
2022-08-30T00:51:30.205Z,14.37
2022-08-30T00:52:30.191Z,14.31
2022-08-30T00:53:30.183Z,14.19
2022-08-30T00:54:30.201Z,14.35
2022-08-30T00:55:30.181Z,14.46
2022-08-30T00:56:30.179Z,14.35
2022-08-30T00:57:30.159Z,14.44
2022-08-30T00:58:30.152Z,14.35
2022-08-30T00:59:30.144Z,14.14
2022-08-30T01:00:30.141Z,14.01
2022-08-30T01:02:02.163Z,13.83
2022-08-30T01:02:30.201Z,13.77
2022-08-30T01:03:30.140Z,13.91
2022-08-30T01:04:30.099Z,13.89
2022-08-30T01:05:31.104Z,13.81
2022-08-30T01:06:32.383Z,13.96
2022-08-30T01:07:30.096Z,14.12
2022-08-30T01:08:30.094Z,14.14
2022-08-30T01:09:30.080Z,14.42
2022-08-30T01:10:30.059Z,14.42
2022-08-30T01:11:30.068Z,14.54
2022-08-30T01:12:30.080Z,14.31
2022-08-30T01:13:30.040Z,14.13
2022-08-30T01:14:30.055Z,14.16
2022-08-30T01:15:30.058Z,14.16
2022-08-30T01:16:30.038Z,13.99
2022-08-30T01:17:30.027Z,13.96
2022-08-30T01:18:30.012Z,13.89
2022-08-30T01:19:30.003Z,13.99
2022-08-30T01:20:30.019Z,14.14
2022-08-30T01:21:29.995Z,14.20
2022-08-30T01:22:29.998Z,14.19
2022-08-30T01:23:30.015Z,14.32
2022-08-30T01:24:30.005Z,14.19
2022-08-30T01:25:29.975Z,14.38
2022-08-30T01:26:29.961Z,14.39
2022-08-30T01:27:29.980Z,14.49
2022-08-30T01:28:29.940Z,14.54
2022-08-30T01:29:29.942Z,14.61
2022-08-30T01:30:30.027Z,14.50
2022-08-30T01:31:29.938Z,14.52
2022-08-30T01:32:29.940Z,14.65
2022-08-30T01:33:29.931Z,14.74
2022-08-30T01:34:29.907Z,14.69
2022-08-30T01:35:29.915Z,14.80
2022-08-30T01:36:29.915Z,14.61
2022-08-30T01:37:29.900Z,14.65
2022-08-30T01:38:29.879Z,14.53
2022-08-30T01:39:29.883Z,14.47
2022-08-30T01:40:30.099Z,14.49
2022-08-30T01:41:29.873Z,14.35
2022-08-30T01:42:29.924Z,14.31
2022-08-30T01:43:29.844Z,14.44
2022-08-30T01:44:29.847Z,14.49
2022-08-30T01:45:29.847Z,14.54
2022-08-30T01:46:29.883Z,14.57
2022-08-30T01:47:29.851Z,14.52
2022-08-30T01:48:31.047Z,14.43
2022-08-30T01:49:29.808Z,14.28
2022-08-30T01:50:29.821Z,14.01
2022-08-30T01:51:29.835Z,13.89
2022-08-30T01:52:29.840Z,13.88
2022-08-30T01:53:29.803Z,13.84
2022-08-30T01:54:36.564Z,14.07
2022-08-30T01:55:30.811Z,14.19
2022-08-30T01:56:29.762Z,14.37
2022-08-30T01:57:29.775Z,14.50
2022-08-30T01:58:29.784Z,14.57
2022-08-30T01:59:29.739Z,14.49
2022-08-30T02:00:29.747Z,14.49
2022-08-30T02:01:29.831Z,14.16
2022-08-30T02:02:29.711Z,13.79
2022-08-30T02:03:29.759Z,13.52
2022-08-30T02:04:29.709Z,13.33
2022-08-30T02:05:29.699Z,13.11
2022-08-30T02:06:29.695Z,13.11
2022-08-30T02:07:29.676Z,13.25
2022-08-30T02:08:29.671Z,13.18
2022-08-30T02:09:29.687Z,13.18
2022-08-30T02:10:29.668Z,13.30
2022-08-30T02:11:29.670Z,13.54
2022-08-30T02:12:29.647Z,13.52
2022-08-30T02:13:29.644Z,13.58
2022-08-30T02:14:29.662Z,13.52
2022-08-30T02:15:29.727Z,13.59
2022-08-30T02:16:29.723Z,13.67
2022-08-30T02:17:29.646Z,13.67
2022-08-30T02:18:29.612Z,13.61
2022-08-30T02:19:29.614Z,13.54
2022-08-30T02:20:29.603Z,13.58
2022-08-30T02:21:29.588Z,13.65
2022-08-30T02:22:29.591Z,13.44
2022-08-30T02:23:29.579Z,13.37
2022-08-30T02:24:29.571Z,13.40
2022-08-30T02:25:29.576Z,13.46
2022-08-30T02:26:29.558Z,13.49
2022-08-30T02:27:29.548Z,13.67
2022-08-30T02:28:29.556Z,13.65
2022-08-30T02:29:29.542Z,13.84
2022-08-30T02:30:29.621Z,13.96
2022-08-30T02:31:29.527Z,13.91
2022-08-30T02:32:29.515Z,13.89
2022-08-30T02:33:29.502Z,13.91
2022-08-30T02:34:29.522Z,13.62
2022-08-30T02:35:29.483Z,13.52
2022-08-30T02:36:29.578Z,13.47
2022-08-30T02:37:29.487Z,13.47
2022-08-30T02:38:29.475Z,13.51
2022-08-30T02:39:29.496Z,13.61
2022-08-30T02:40:29.534Z,13.62
2022-08-30T02:41:29.438Z,13.55
2022-08-30T02:42:29.442Z,13.73
2022-08-30T02:43:29.439Z,13.59
2022-08-30T02:44:29.427Z,13.65
2022-08-30T02:45:29.459Z,13.59
2022-08-30T02:46:34.571Z,13.59
2022-08-30T02:47:30.414Z,13.55
2022-08-30T02:48:29.407Z,13.55
2022-08-30T02:49:33.538Z,13.46
2022-08-30T02:50:30.406Z,13.29
2022-08-30T02:51:29.419Z,13.33
2022-08-30T02:52:29.382Z,13.46
2022-08-30T02:53:29.366Z,13.29
2022-08-30T02:54:29.366Z,13.07
2022-08-30T02:55:29.378Z,12.89
2022-08-30T02:56:29.347Z,12.92
2022-08-30T02:57:29.338Z,12.93
2022-08-30T02:58:29.375Z,12.96
2022-08-30T02:59:29.330Z,13.04
2022-08-30T03:00:29.323Z,13.14
2022-08-30T03:01:29.572Z,13.22
2022-08-30T03:02:30.310Z,13.43
2022-08-30T03:03:29.357Z,13.54
2022-08-30T03:04:29.330Z,13.69
2022-08-30T03:05:29.298Z,13.73
2022-08-30T03:06:29.291Z,13.71
2022-08-30T03:07:29.270Z,13.77
2022-08-30T03:08:29.270Z,13.77
2022-08-30T03:09:29.251Z,13.84
2022-08-30T03:10:29.245Z,13.96
2022-08-30T03:11:29.262Z,14.16
2022-08-30T03:12:29.238Z,14.14
2022-08-30T03:13:29.854Z,13.99
2022-08-30T03:14:29.223Z,13.67
2022-08-30T03:15:29.254Z,13.32
2022-08-30T03:16:29.308Z,13.27
2022-08-30T03:17:29.198Z,13.32
2022-08-30T03:18:29.838Z,13.25
2022-08-30T03:19:29.215Z,13.20
2022-08-30T03:20:29.190Z,13.38
2022-08-30T03:21:29.177Z,13.44
2022-08-30T03:22:29.161Z,13.62
2022-08-30T03:23:29.442Z,13.54
2022-08-30T03:24:29.145Z,13.65
2022-08-30T03:25:29.144Z,13.80
2022-08-30T03:26:29.140Z,13.67
2022-08-30T03:27:29.147Z,13.55
2022-08-30T03:28:29.124Z,13.12
2022-08-30T03:29:29.175Z,12.89
2022-08-30T03:30:29.113Z,12.75
2022-08-30T03:31:29.144Z,12.79
2022-08-30T03:32:29.165Z,12.99
2022-08-30T03:33:29.104Z,13.07
2022-08-30T03:34:29.075Z,13.25
2022-08-30T03:35:29.096Z,13.41
2022-08-30T03:36:29.077Z,13.55
2022-08-30T03:37:29.064Z,13.40
2022-08-30T03:38:29.094Z,13.59
2022-08-30T03:39:29.065Z,13.54
2022-08-30T03:40:29.116Z,13.54
2022-08-30T03:41:29.808Z,13.65
2022-08-30T03:42:29.044Z,13.70
2022-08-30T03:43:29.029Z,13.83
2022-08-30T03:44:29.017Z,13.94
2022-08-30T03:45:29.060Z,13.99
2022-08-30T03:46:29.008Z,13.99
2022-08-30T03:47:29.066Z,13.98
2022-08-30T03:48:29.008Z,14.12
2022-08-30T03:49:29.008Z,14.27
2022-08-30T03:50:28.972Z,14.42
2022-08-30T03:51:28.977Z,14.39
2022-08-30T03:52:28.992Z,14.46
2022-08-30T03:53:28.969Z,14.42
2022-08-30T03:54:28.965Z,14.34
2022-08-30T03:55:28.941Z,13.99
2022-08-30T03:56:28.944Z,13.54
2022-08-30T03:57:28.944Z,13.17
2022-08-30T03:58:28.929Z,13.15
2022-08-30T03:59:28.920Z,13.27
2022-08-30T04:00:28.922Z,13.24
2022-08-30T04:01:28.934Z,13.30
2022-08-30T04:02:28.939Z,13.24
2022-08-30T04:03:28.924Z,13.18
2022-08-30T04:04:28.888Z,13.17
2022-08-30T04:05:28.872Z,13.02
2022-08-30T04:06:28.883Z,13.03
2022-08-30T04:07:28.865Z,12.97
2022-08-30T04:08:28.864Z,13.09
2022-08-30T04:09:28.851Z,13.18
2022-08-30T04:10:28.831Z,13.29
2022-08-30T04:11:28.835Z,13.40
2022-08-30T04:12:28.822Z,13.43
2022-08-30T04:13:28.852Z,13.51
2022-08-30T04:14:28.820Z,13.46
2022-08-30T04:15:28.799Z,13.46
2022-08-30T04:16:28.858Z,13.41
2022-08-30T04:17:28.796Z,13.56
2022-08-30T04:18:28.797Z,13.47
2022-08-30T04:19:28.769Z,13.56
2022-08-30T04:20:28.775Z,13.56
2022-08-30T04:21:28.779Z,13.49
2022-08-30T04:22:28.767Z,13.37
2022-08-30T04:23:28.767Z,13.47
2022-08-30T04:24:28.751Z,13.43
2022-08-30T04:25:28.735Z,13.49
2022-08-30T04:26:29.520Z,13.41
2022-08-30T04:27:28.736Z,13.55
2022-08-30T04:28:28.728Z,13.52
2022-08-30T04:29:28.721Z,13.43
2022-08-30T04:30:28.692Z,13.38
2022-08-30T04:31:28.796Z,13.40
2022-08-30T04:32:28.715Z,13.32
2022-08-30T04:33:28.711Z,13.38
2022-08-30T04:34:28.672Z,13.25
2022-08-30T04:35:28.647Z,13.18
2022-08-30T04:36:28.667Z,13.15
2022-08-30T04:37:28.640Z,12.84
2022-08-30T04:38:30.451Z,12.79
2022-08-30T04:39:29.659Z,12.77
2022-08-30T04:40:28.703Z,12.88
2022-08-30T04:41:28.627Z,12.96
2022-08-30T04:42:28.643Z,13.12
2022-08-30T04:43:28.615Z,13.07
2022-08-30T04:44:28.615Z,13.00
2022-08-30T04:45:28.642Z,13.11
2022-08-30T04:46:29.590Z,13.07
2022-08-30T04:47:28.571Z,13.12
2022-08-30T04:48:28.566Z,13.21
2022-08-30T04:49:28.628Z,13.32
2022-08-30T04:50:28.555Z,13.37
2022-08-30T04:51:28.551Z,13.44
2022-08-30T04:52:28.537Z,13.61
2022-08-30T04:53:28.574Z,13.58
2022-08-30T04:54:28.546Z,13.58
2022-08-30T04:55:28.527Z,13.74
2022-08-30T04:56:28.579Z,13.79
2022-08-30T04:57:28.506Z,13.73
2022-08-30T04:58:28.511Z,13.80
2022-08-30T04:59:28.527Z,13.71
2022-08-30T05:00:28.503Z,13.65
2022-08-30T05:01:28.767Z,13.81
2022-08-30T05:02:28.546Z,13.96
2022-08-30T05:03:28.487Z,13.88
2022-08-30T05:04:28.470Z,13.92
2022-08-30T05:05:28.493Z,13.79
2022-08-30T05:06:28.451Z,13.87
2022-08-30T05:07:28.459Z,13.61
2022-08-30T05:08:28.436Z,13.61
2022-08-30T05:09:28.430Z,13.73
2022-08-30T05:10:28.443Z,13.71
2022-08-30T05:11:28.435Z,13.73
2022-08-30T05:12:28.419Z,13.74
2022-08-30T05:13:35.574Z,13.74
2022-08-30T05:14:29.398Z,13.88
2022-08-30T05:15:28.394Z,13.91
2022-08-30T05:16:28.439Z,13.98
2022-08-30T05:17:28.455Z,14.02
2022-08-30T05:18:28.379Z,14.13
2022-08-30T05:19:28.377Z,14.37
2022-08-30T05:20:28.375Z,14.34
2022-08-30T05:21:28.375Z,14.39
2022-08-30T05:22:28.346Z,14.37
2022-08-30T05:23:28.343Z,14.56
2022-08-30T05:24:28.382Z,14.64
2022-08-30T05:25:28.318Z,14.62
2022-08-30T05:26:28.343Z,14.64
2022-08-30T05:27:28.384Z,14.74
2022-08-30T05:28:28.299Z,14.64
2022-08-30T05:29:28.315Z,14.69
2022-08-30T05:30:28.318Z,14.75
2022-08-30T05:31:28.345Z,14.64
2022-08-30T05:32:28.280Z,14.80
2022-08-30T05:33:28.274Z,14.69
2022-08-30T05:34:28.276Z,14.74
2022-08-30T05:35:28.250Z,14.68
2022-08-30T05:36:28.259Z,14.80
2022-08-30T05:37:28.250Z,14.87
2022-08-30T05:38:28.234Z,14.91
2022-08-30T05:39:28.231Z,15.06
2022-08-30T05:40:29.402Z,15.09
2022-08-30T05:41:29.226Z,15.17
2022-08-30T05:42:28.199Z,15.27
2022-08-30T05:43:30.012Z,15.28
2022-08-30T05:44:28.198Z,15.41
2022-08-30T05:45:28.187Z,15.42
2022-08-30T05:46:28.267Z,15.56
2022-08-30T05:47:28.185Z,15.67
2022-08-30T05:48:29.174Z,15.66
2022-08-30T05:49:28.163Z,15.52
2022-08-30T05:50:28.214Z,15.54
2022-08-30T05:51:28.151Z,15.49
2022-08-30T05:52:28.149Z,15.38
2022-08-30T05:53:28.818Z,15.28
2022-08-30T05:54:28.145Z,15.42
2022-08-30T05:55:28.134Z,15.43
2022-08-30T05:56:28.122Z,15.39
2022-08-30T05:57:28.124Z,15.36
2022-08-30T05:58:28.088Z,15.48
2022-08-30T05:59:28.125Z,15.68
2022-08-30T06:00:28.108Z,15.84
2022-08-30T06:01:28.137Z,15.88
2022-08-30T06:02:28.068Z,15.96
2022-08-30T06:03:28.114Z,16.18
2022-08-30T06:04:28.067Z,16.34
2022-08-30T06:05:28.067Z,16.48
2022-08-30T06:06:28.072Z,16.44
2022-08-30T06:07:28.038Z,16.60
2022-08-30T06:08:28.103Z,16.73
2022-08-30T06:09:28.032Z,16.67
2022-08-30T06:10:28.109Z,16.67
2022-08-30T06:11:28.025Z,16.78
2022-08-30T06:12:28.003Z,16.99
2022-08-30T06:13:27.999Z,16.98
2022-08-30T06:14:27.998Z,16.90
2022-08-30T06:15:27.976Z,16.98
2022-08-30T06:16:28.057Z,16.86
2022-08-30T06:17:27.980Z,16.88
2022-08-30T06:18:28.358Z,16.96
2022-08-30T06:19:27.973Z,17.14
2022-08-30T06:20:27.951Z,17.08
2022-08-30T06:21:27.955Z,17.06
2022-08-30T06:22:27.939Z,17.03
2022-08-30T06:23:27.947Z,17.06
2022-08-30T06:24:53.594Z,17.13
2022-08-30T06:25:41.327Z,17.29
2022-08-30T06:26:28.948Z,17.44
2022-08-30T06:27:27.956Z,17.62
2022-08-30T06:28:27.886Z,17.59
2022-08-30T06:29:27.890Z,17.71
2022-08-30T06:30:27.930Z,17.88
2022-08-30T06:31:27.950Z,17.84
2022-08-30T06:32:27.881Z,18.00
2022-08-30T06:33:27.892Z,17.92
2022-08-30T06:34:27.874Z,18.09
2022-08-30T06:35:27.859Z,18.18
2022-08-30T06:36:27.875Z,18.17
2022-08-30T06:37:30.048Z,17.70
2022-08-30T06:38:27.838Z,17.73
2022-08-30T06:39:27.852Z,17.99
2022-08-30T06:40:27.946Z,18.09
2022-08-30T06:41:27.818Z,18.13
2022-08-30T06:42:27.838Z,18.06
2022-08-30T06:43:28.703Z,18.31
2022-08-30T06:44:27.819Z,18.57
2022-08-30T06:45:27.815Z,18.55
2022-08-30T06:46:27.917Z,18.57
2022-08-30T06:47:27.816Z,18.65
2022-08-30T06:48:27.804Z,18.50
2022-08-30T06:49:27.787Z,18.33
2022-08-30T06:50:27.778Z,18.24
2022-08-30T06:51:27.762Z,18.33
2022-08-30T06:52:27.786Z,18.49
2022-08-30T06:53:27.766Z,18.64
2022-08-30T06:54:27.803Z,18.64
2022-08-30T06:55:27.738Z,18.65
2022-08-30T06:56:27.816Z,18.73
2022-08-30T06:57:27.743Z,18.64
2022-08-30T06:58:27.719Z,18.64
2022-08-30T06:59:27.770Z,18.52
2022-08-30T07:00:27.705Z,18.58
2022-08-30T07:01:27.807Z,18.52
2022-08-30T07:02:27.765Z,18.58
2022-08-30T07:03:27.709Z,18.57
2022-08-30T07:04:27.718Z,18.87
2022-08-30T07:05:27.714Z,18.94
2022-08-30T07:06:27.690Z,18.82
2022-08-30T07:07:27.709Z,18.79
2022-08-30T07:08:27.684Z,18.90
2022-08-30T07:09:27.805Z,19.17
2022-08-30T07:10:27.667Z,19.31
2022-08-30T07:11:28.480Z,19.36
2022-08-30T07:12:28.653Z,19.20
2022-08-30T07:13:27.648Z,19.54
2022-08-30T07:14:27.614Z,19.51
2022-08-30T07:15:27.611Z,19.36
2022-08-30T07:16:28.360Z,19.63
2022-08-30T07:17:31.309Z,19.86
2022-08-30T07:18:29.657Z,19.83
2022-08-30T07:19:27.615Z,19.87
2022-08-30T07:20:27.574Z,20.05
2022-08-30T07:21:28.572Z,20.08
2022-08-30T07:22:27.576Z,20.27
2022-08-30T07:23:27.623Z,20.59
2022-08-30T07:24:27.563Z,20.83
2022-08-30T07:25:27.569Z,21.23
2022-08-30T07:26:27.532Z,21.30
2022-08-30T07:27:27.537Z,21.64
2022-08-30T07:28:27.571Z,21.61
2022-08-30T07:29:27.537Z,21.50
2022-08-30T07:30:27.508Z,21.35
2022-08-30T07:31:27.488Z,21.60
2022-08-30T07:32:27.529Z,22.54
2022-08-30T07:33:27.491Z,22.86
2022-08-30T07:34:27.620Z,23.77
2022-08-30T07:35:28.510Z,24.94
2022-08-30T07:36:27.458Z,25.30
2022-08-30T07:37:28.370Z,25.65
2022-08-30T07:38:27.455Z,26.06
2022-08-30T07:39:27.449Z,25.72
2022-08-30T07:40:27.511Z,26.08
2022-08-30T07:41:27.438Z,26.02
2022-08-30T07:42:28.077Z,26.20
2022-08-30T07:43:27.410Z,25.61
2022-08-30T07:44:27.441Z,24.91
2022-08-30T07:45:27.419Z,24.37
2022-08-30T07:46:27.576Z,24.42
2022-08-30T07:47:27.404Z,24.53
2022-08-30T07:48:27.397Z,24.61
2022-08-30T07:49:27.388Z,25.83
2022-08-30T07:50:27.379Z,25.35
2022-08-30T07:51:27.393Z,25.22
2022-08-30T07:52:27.448Z,26.20
2022-08-30T07:53:27.360Z,26.29
2022-08-30T07:54:27.425Z,25.15
2022-08-30T07:55:27.348Z,24.69
2022-08-30T07:56:27.352Z,24.59
2022-08-30T07:57:27.479Z,25.24
2022-08-30T07:58:27.352Z,25.79
2022-08-30T07:59:31.862Z,26.05
2022-08-30T08:00:27.343Z,26.18
2022-08-30T08:01:27.396Z,26.50
2022-08-30T08:02:27.370Z,27.36
2022-08-30T08:03:27.315Z,27.80
2022-08-30T08:04:27.291Z,28.62
2022-08-30T08:05:27.278Z,28.35
2022-08-30T08:06:27.269Z,28.01
2022-08-30T08:07:27.291Z,27.74
2022-08-30T08:08:27.266Z,27.32
2022-08-30T08:09:27.260Z,27.85
2022-08-30T08:10:27.230Z,27.95
2022-08-30T08:11:31.601Z,28.69
2022-08-30T08:12:29.258Z,28.41
2022-08-30T08:13:27.927Z,27.64
2022-08-30T08:14:27.236Z,26.21
2022-08-30T08:15:27.211Z,26.59
2022-08-30T08:16:27.220Z,27.53
2022-08-30T08:17:27.180Z,28.54
2022-08-30T08:18:27.187Z,29.52
2022-08-30T08:19:27.200Z,29.63
2022-08-30T08:20:27.172Z,29.74
2022-08-30T08:21:27.169Z,29.71
2022-08-30T08:22:27.159Z,29.41
2022-08-30T08:23:27.159Z,28.47
2022-08-30T08:24:27.170Z,28.28
2022-08-30T08:25:27.150Z,28.36
2022-08-30T08:26:27.160Z,29.03
2022-08-30T08:27:27.135Z,29.84
2022-08-30T08:28:27.103Z,30.21
2022-08-30T08:29:28.118Z,30.23
2022-08-30T08:30:27.110Z,30.59
2022-08-30T08:31:33.572Z,29.57
2022-08-30T08:32:28.103Z,27.58
2022-08-30T08:33:27.103Z,28.23
2022-08-30T08:34:27.092Z,27.94
2022-08-30T08:35:27.092Z,27.88
2022-08-30T08:36:27.091Z,28.38
2022-08-30T08:37:27.931Z,29.23
2022-08-30T08:38:28.012Z,29.49
2022-08-30T08:39:27.051Z,29.23
2022-08-30T08:40:27.141Z,29.57
2022-08-30T08:41:27.036Z,30.29
2022-08-30T08:42:27.062Z,30.50
2022-08-30T08:43:27.053Z,29.59
2022-08-30T08:44:31.239Z,28.73
2022-08-30T08:45:28.016Z,28.59
2022-08-30T08:46:27.113Z,28.10
2022-08-30T08:47:26.992Z,28.51
2022-08-30T08:48:32.117Z,29.63
2022-08-30T08:49:27.992Z,29.68
2022-08-30T08:50:26.980Z,29.01
2022-08-30T08:51:26.976Z,27.94
2022-08-30T08:52:26.970Z,27.82
2022-08-30T08:53:45.855Z,28.43
2022-08-30T08:54:28.977Z,28.85
2022-08-30T08:55:26.961Z,28.47
2022-08-30T08:56:26.964Z,28.50
2022-08-30T08:57:26.952Z,28.82
2022-08-30T08:58:26.923Z,28.59
2022-08-30T08:59:26.913Z,29.01
2022-08-30T09:00:26.911Z,29.78
2022-08-30T09:01:26.978Z,29.66
2022-08-30T09:02:26.900Z,29.77
2022-08-30T09:03:26.932Z,30.38
2022-08-30T09:04:26.878Z,29.56
2022-08-30T09:05:26.917Z,29.65
2022-08-30T09:06:26.941Z,29.57
2022-08-30T09:07:26.894Z,30.11
2022-08-30T09:08:26.879Z,30.40
2022-08-30T09:09:26.877Z,30.16
2022-08-30T09:10:46.910Z,29.78
2022-08-30T09:11:28.853Z,29.52
2022-08-30T09:12:26.853Z,29.22
2022-08-30T09:13:27.260Z,30.11
2022-08-30T09:14:30.022Z,30.53
2022-08-30T09:15:26.862Z,30.98
2022-08-30T09:16:26.821Z,31.77
2022-08-30T09:17:26.836Z,31.91
2022-08-30T09:18:26.854Z,31.49
2022-08-30T09:19:26.817Z,31.46
2022-08-30T09:20:26.804Z,31.88
2022-08-30T09:21:27.784Z,31.72
2022-08-30T09:22:26.822Z,30.87
2022-08-30T09:23:26.777Z,30.89
2022-08-30T09:24:26.780Z,31.02
2022-08-30T09:25:26.760Z,30.91
2022-08-30T09:26:26.801Z,30.83
2022-08-30T09:27:26.752Z,30.11
2022-08-30T09:28:26.757Z,30.00
2022-08-30T09:29:26.749Z,30.64
2022-08-30T09:30:27.201Z,30.57
2022-08-30T09:31:26.754Z,30.16
2022-08-30T09:32:26.731Z,29.93
2022-08-30T09:33:26.727Z,30.61
2022-08-30T09:34:26.723Z,31.46
2022-08-30T09:35:26.740Z,32.15
2022-08-30T09:36:26.726Z,32.67
2022-08-30T09:37:26.744Z,32.71
2022-08-30T09:38:26.746Z,31.73
2022-08-30T09:39:27.771Z,31.11
2022-08-30T09:40:26.742Z,31.26
2022-08-30T09:41:26.726Z,31.77
2022-08-30T09:42:26.689Z,32.70
2022-08-30T09:43:26.677Z,32.59
2022-08-30T09:44:26.667Z,32.35
2022-08-30T09:45:27.883Z,33.20
2022-08-30T09:46:26.686Z,33.94
2022-08-30T09:47:26.645Z,33.10
2022-08-30T09:48:26.738Z,33.55
2022-08-30T09:49:26.667Z,33.82
2022-08-30T09:50:26.644Z,32.74
2022-08-30T09:51:26.650Z,33.29
2022-08-30T09:52:26.638Z,33.74
2022-08-30T09:53:26.612Z,34.64
2022-08-30T09:54:26.628Z,35.48
2022-08-30T09:55:26.634Z,35.39
2022-08-30T09:56:26.601Z,35.10
2022-08-30T09:57:33.839Z,34.96
2022-08-30T09:58:29.915Z,35.30
2022-08-30T09:59:27.601Z,36.24
2022-08-30T10:00:26.561Z,35.91
2022-08-30T10:01:26.603Z,35.32
2022-08-30T10:02:28.293Z,34.95
2022-08-30T10:03:36.277Z,35.55
2022-08-30T10:04:31.058Z,35.50
2022-08-30T10:05:27.536Z,35.06
2022-08-30T10:06:27.929Z,35.25
2022-08-30T10:07:28.938Z,34.56
2022-08-30T10:08:26.500Z,35.40
2022-08-30T10:09:26.507Z,35.76
2022-08-30T10:10:26.506Z,35.81
2022-08-30T10:11:26.493Z,35.55
2022-08-30T10:12:26.491Z,35.26
2022-08-30T10:13:26.535Z,35.20
2022-08-30T10:14:26.509Z,35.45
2022-08-30T10:15:26.476Z,34.99
2022-08-30T10:16:26.468Z,33.14
2022-08-30T10:17:27.052Z,34.04
2022-08-30T10:18:26.448Z,35.48
2022-08-30T10:19:26.441Z,34.60
2022-08-30T10:20:26.457Z,34.51
2022-08-30T10:21:26.474Z,34.92
2022-08-30T10:22:26.425Z,35.42
2022-08-30T10:23:26.489Z,35.52
2022-08-30T10:24:30.115Z,35.33
2022-08-30T10:25:27.453Z,34.91
2022-08-30T10:26:26.410Z,35.15
2022-08-30T10:27:26.433Z,35.10
2022-08-30T10:28:26.400Z,34.51
2022-08-30T10:29:26.393Z,34.74
2022-08-30T10:30:26.397Z,35.23
2022-08-30T10:31:26.617Z,36.19
2022-08-30T10:32:26.362Z,36.38
2022-08-30T10:33:27.369Z,37.50
2022-08-30T10:34:26.369Z,37.77
2022-08-30T10:35:28.038Z,37.47
2022-08-30T10:36:26.392Z,37.78
2022-08-30T10:37:26.348Z,38.12
2022-08-30T10:38:26.347Z,38.27
2022-08-30T10:39:26.331Z,38.70
2022-08-30T10:40:26.382Z,39.03
2022-08-30T10:41:26.319Z,38.38
2022-08-30T10:42:26.440Z,37.61
2022-08-30T10:43:26.314Z,36.92
2022-08-30T10:44:26.300Z,36.61
2022-08-30T10:45:26.287Z,36.80
2022-08-30T10:46:26.307Z,36.07
2022-08-30T10:47:26.285Z,35.63
2022-08-30T10:48:26.283Z,36.14
2022-08-30T10:49:26.276Z,36.73
2022-08-30T10:50:26.283Z,36.94
2022-08-30T10:51:26.279Z,37.41
2022-08-30T10:52:26.267Z,35.29
2022-08-30T10:53:26.244Z,33.78
2022-08-30T10:54:26.260Z,34.32
2022-08-30T10:55:26.235Z,34.89
2022-08-30T10:56:26.249Z,33.60
2022-08-30T10:57:26.328Z,32.81
2022-08-30T10:58:26.231Z,34.04
2022-08-30T10:59:26.227Z,35.55
2022-08-30T11:00:26.206Z,36.73
2022-08-30T11:01:28.547Z,37.17
2022-08-30T11:02:27.210Z,37.76
2022-08-30T11:03:26.211Z,38.39
2022-08-30T11:04:26.184Z,38.99
2022-08-30T11:05:26.391Z,37.88
2022-08-30T11:06:26.195Z,37.41
2022-08-30T11:07:26.230Z,36.48
2022-08-30T11:08:26.158Z,37.31
2022-08-30T11:09:26.663Z,37.09
2022-08-30T11:10:26.148Z,35.77
2022-08-30T11:11:26.918Z,35.01
2022-08-30T11:13:27.171Z,34.91
2022-08-30T11:14:26.150Z,34.20
2022-08-30T11:15:26.121Z,33.76
2022-08-30T11:16:26.138Z,33.78
2022-08-30T11:17:26.107Z,35.17
2022-08-30T11:18:26.128Z,36.30
2022-08-30T11:19:26.219Z,37.28
2022-08-30T11:20:26.104Z,37.95
2022-08-30T11:21:26.092Z,38.30
2022-08-30T11:22:26.096Z,37.89
2022-08-30T11:23:26.092Z,38.42
2022-08-30T11:24:26.085Z,38.15
2022-08-30T11:25:26.075Z,38.14
2022-08-30T11:26:26.069Z,36.06
2022-08-30T11:27:26.077Z,34.89
2022-08-30T11:28:26.063Z,34.96
2022-08-30T11:29:27.102Z,35.25
2022-08-30T11:30:26.592Z,34.94
2022-08-30T11:31:26.062Z,35.79
2022-08-30T11:32:26.040Z,35.52
2022-08-30T11:33:26.092Z,36.76
2022-08-30T11:34:26.019Z,37.36
2022-08-30T11:35:26.049Z,36.26
2022-08-30T11:36:26.034Z,35.69
2022-08-30T11:37:26.033Z,35.60
2022-08-30T11:38:26.014Z,35.33
2022-08-30T11:39:25.993Z,35.42
2022-08-30T11:40:26.034Z,35.02
2022-08-30T11:41:27.290Z,34.88
2022-08-30T11:42:29.601Z,35.20
2022-08-30T11:43:25.985Z,33.98
2022-08-30T11:44:25.977Z,34.66
2022-08-30T11:45:28.089Z,33.92
2022-08-30T11:46:26.027Z,34.27
2022-08-30T11:47:25.960Z,34.61
2022-08-30T11:48:25.960Z,35.70
2022-08-30T11:49:25.981Z,34.88
2022-08-30T11:50:25.961Z,34.60
2022-08-30T11:51:25.960Z,34.44
2022-08-30T11:52:27.192Z,34.84
2022-08-30T11:53:25.928Z,35.37
2022-08-30T11:54:25.919Z,35.32
2022-08-30T11:55:25.932Z,34.38
2022-08-30T11:56:25.931Z,32.48
2022-08-30T11:57:25.923Z,32.06
2022-08-30T11:58:25.955Z,32.32
2022-08-30T11:59:25.916Z,32.61
2022-08-30T12:00:28.424Z,33.23
2022-08-30T12:01:49.839Z,32.76
2022-08-30T12:02:27.982Z,34.16
2022-08-30T12:03:26.043Z,35.36
2022-08-30T12:04:25.972Z,34.70
2022-08-30T12:05:25.871Z,34.84
2022-08-30T12:06:25.863Z,34.83
2022-08-30T12:07:25.894Z,34.02
2022-08-30T12:08:28.018Z,34.29
2022-08-30T12:09:25.849Z,34.08
2022-08-30T12:10:25.833Z,34.66
2022-08-30T12:11:25.830Z,34.81
2022-08-30T12:12:25.857Z,33.82
2022-08-30T12:13:25.825Z,34.80
2022-08-30T12:14:25.826Z,35.26
2022-08-30T12:15:25.831Z,35.18
2022-08-30T12:16:25.827Z,35.08
2022-08-30T12:17:25.804Z,33.63
2022-08-30T12:18:25.835Z,33.34
2022-08-30T12:19:25.792Z,33.68
2022-08-30T12:20:25.794Z,34.29
2022-08-30T12:21:28.042Z,35.47
2022-08-30T12:22:25.770Z,36.52
2022-08-30T12:23:25.778Z,36.43
2022-08-30T12:24:25.814Z,34.48
2022-08-30T12:25:25.766Z,33.36
2022-08-30T12:26:25.762Z,33.26
2022-08-30T12:27:25.748Z,34.17
2022-08-30T12:28:25.781Z,35.20
2022-08-30T12:29:25.746Z,34.17
2022-08-30T12:30:25.808Z,34.41
2022-08-30T12:31:25.748Z,35.03
2022-08-30T12:32:25.727Z,35.86
2022-08-30T12:33:29.121Z,35.88
2022-08-30T12:34:25.710Z,36.35
2022-08-30T12:35:25.702Z,35.25
2022-08-30T12:36:25.712Z,34.17
2022-08-30T12:37:25.702Z,34.05
2022-08-30T12:38:28.024Z,34.19
2022-08-30T12:39:25.704Z,33.73
2022-08-30T12:40:25.757Z,34.48
2022-08-30T12:41:25.718Z,34.51
2022-08-30T12:42:27.087Z,34.17
2022-08-30T12:43:25.674Z,32.57
2022-08-30T12:44:25.662Z,32.62
2022-08-30T12:45:25.705Z,33.13
2022-08-30T12:46:25.898Z,32.32
2022-08-30T12:47:25.673Z,32.18
2022-08-30T12:48:25.661Z,32.88
2022-08-30T12:49:25.641Z,32.20
2022-08-30T12:50:25.625Z,31.77
2022-08-30T12:51:25.642Z,31.33
2022-08-30T12:52:25.613Z,31.05
2022-08-30T12:53:25.615Z,32.22